sensor_id;sensor_type;location;lat;lon;timestamp;temperature;humidity
4757;DHT22;2392;52.578;13.426;2024-01-11T00:02:00;-5.50;99.90
4757;DHT22;2392;52.578;13.426;2024-01-11T00:04:29;-5.50;99.90
4757;DHT22;2392;52.578;13.426;2024-01-11T00:06:55;-5.50;99.90
4757;DHT22;2392;52.578;13.426;2024-01-11T00:09:22;-5.50;99.90
4757;DHT22;2392;52.578;13.426;2024-01-11T00:11:49;-5.50;99.90
4757;DHT22;2392;52.578;13.426;2024-01-11T00:14:15;-5.50;99.90
4757;DHT22;2392;52.578;13.426;2024-01-11T00:16:42;-5.50;99.90
4757;DHT22;2392;52.578;13.426;2024-01-11T00:19:09;-5.50;99.90
4757;DHT22;2392;52.578;13.426;2024-01-11T00:21:37;-5.40;99.90
4757;DHT22;2392;52.578;13.426;2024-01-11T00:24:04;-5.40;99.90
4757;DHT22;2392;52.578;13.426;2024-01-11T00:26:30;-5.40;99.90
4757;DHT22;2392;52.578;13.426;2024-01-11T00:28:57;-5.40;99.90
4757;DHT22;2392;52.578;13.426;2024-01-11T00:31:24;-5.40;99.90
4757;DHT22;2392;52.578;13.426;2024-01-11T00:33:50;-5.30;99.90
4757;DHT22;2392;52.578;13.426;2024-01-11T00:36:18;-5.30;99.90
4757;DHT22;2392;52.578;13.426;2024-01-11T00:38:46;-5.30;99.90
4757;DHT22;2392;52.578;13.426;2024-01-11T00:41:13;-5.30;99.90
4757;DHT22;2392;52.578;13.426;2024-01-11T00:43:40;-5.30;99.90
4757;DHT22;2392;52.578;13.426;2024-01-11T00:46:06;-5.20;99.90
4757;DHT22;2392;52.578;13.426;2024-01-11T00:48:33;-5.20;99.90
4757;DHT22;2392;52.578;13.426;2024-01-11T00:51:00;-5.20;99.90
4757;DHT22;2392;52.578;13.426;2024-01-11T00:53:26;-5.20;99.90
4757;DHT22;2392;52.578;13.426;2024-01-11T00:55:57;-5.10;99.90
4757;DHT22;2392;52.578;13.426;2024-01-11T00:58:23;-5.10;99.90
4757;DHT22;2392;52.578;13.426;2024-01-11T01:00:50;-5.10;99.90
4757;DHT22;2392;52.578;13.426;2024-01-11T01:03:18;-5.10;99.90
4757;DHT22;2392;52.578;13.426;2024-01-11T01:05:45;-5.20;99.90
4757;DHT22;2392;52.578;13.426;2024-01-11T01:08:11;-5.20;99.90
4757;DHT22;2392;52.578;13.426;2024-01-11T01:10:38;-5.20;99.90
4757;DHT22;2392;52.578;13.426;2024-01-11T01:13:05;-5.20;99.90
4757;DHT22;2392;52.578;13.426;2024-01-11T01:15:32;-5.10;99.90
4757;DHT22;2392;52.578;13.426;2024-01-11T01:17:58;-5.10;99.90
4757;DHT22;2392;52.578;13.426;2024-01-11T01:20:25;-5.10;99.90
4757;DHT22;2392;52.578;13.426;2024-01-11T01:22:51;-5.10;99.90
4757;DHT22;2392;52.578;13.426;2024-01-11T01:25:18;-5.10;99.90
4757;DHT22;2392;52.578;13.426;2024-01-11T01:27:45;-5.10;99.90
4757;DHT22;2392;52.578;13.426;2024-01-11T01:30:13;-5.10;99.90
4757;DHT22;2392;52.578;13.426;2024-01-11T01:32:39;-5.00;99.90
4757;DHT22;2392;52.578;13.426;2024-01-11T01:35:06;-5.10;99.90
4757;DHT22;2392;52.578;13.426;2024-01-11T01:37:33;-5.10;99.90
4757;DHT22;2392;52.578;13.426;2024-01-11T01:40:00;-5.10;99.90
4757;DHT22;2392;52.578;13.426;2024-01-11T01:42:26;-5.10;99.90
4757;DHT22;2392;52.578;13.426;2024-01-11T01:44:53;-5.10;99.90
4757;DHT22;2392;52.578;13.426;2024-01-11T01:47:21;-5.10;99.90
4757;DHT22;2392;52.578;13.426;2024-01-11T01:49:49;-5.10;99.90
4757;DHT22;2392;52.578;13.426;2024-01-11T01:52:16;-5.10;99.90
4757;DHT22;2392;52.578;13.426;2024-01-11T01:54:43;-5.00;99.90
4757;DHT22;2392;52.578;13.426;2024-01-11T01:57:11;-5.00;99.90
4757;DHT22;2392;52.578;13.426;2024-01-11T01:59:38;-4.90;99.90
4757;DHT22;2392;52.578;13.426;2024-01-11T02:02:05;-4.90;99.90
4757;DHT22;2392;52.578;13.426;2024-01-11T02:04:34;-4.90;99.90
4757;DHT22;2392;52.578;13.426;2024-01-11T02:07:01;-4.90;99.90
4757;DHT22;2392;52.578;13.426;2024-01-11T02:09:30;-4.80;99.90
4757;DHT22;2392;52.578;13.426;2024-01-11T02:11:57;-4.80;99.90
4757;DHT22;2392;52.578;13.426;2024-01-11T02:14:25;-4.80;99.90
4757;DHT22;2392;52.578;13.426;2024-01-11T02:16:52;-4.70;99.90
4757;DHT22;2392;52.578;13.426;2024-01-11T02:19:19;-4.70;99.90
4757;DHT22;2392;52.578;13.426;2024-01-11T02:21:50;-4.60;99.90
4757;DHT22;2392;52.578;13.426;2024-01-11T02:24:19;-4.60;99.90
4757;DHT22;2392;52.578;13.426;2024-01-11T02:26:58;-4.60;99.90
4757;DHT22;2392;52.578;13.426;2024-01-11T02:29:25;-4.50;99.90
4757;DHT22;2392;52.578;13.426;2024-01-11T02:31:52;-4.50;99.90
4757;DHT22;2392;52.578;13.426;2024-01-11T02:34:18;-4.50;99.90
4757;DHT22;2392;52.578;13.426;2024-01-11T02:36:45;-4.50;99.90
4757;DHT22;2392;52.578;13.426;2024-01-11T02:39:13;-4.50;99.90
4757;DHT22;2392;52.578;13.426;2024-01-11T02:41:44;-4.50;99.90
4757;DHT22;2392;52.578;13.426;2024-01-11T02:44:11;-4.40;99.90
4757;DHT22;2392;52.578;13.426;2024-01-11T02:46:37;-4.40;99.90
4757;DHT22;2392;52.578;13.426;2024-01-11T02:49:04;-4.30;99.90
4757;DHT22;2392;52.578;13.426;2024-01-11T02:51:31;-4.30;99.90
4757;DHT22;2392;52.578;13.426;2024-01-11T02:53:57;-4.30;99.90
4757;DHT22;2392;52.578;13.426;2024-01-11T02:56:24;-4.30;99.90
4757;DHT22;2392;52.578;13.426;2024-01-11T02:58:52;-4.30;99.90
4757;DHT22;2392;52.578;13.426;2024-01-11T03:01:18;-4.40;99.90
4757;DHT22;2392;52.578;13.426;2024-01-11T03:03:45;-4.40;99.90
4757;DHT22;2392;52.578;13.426;2024-01-11T03:06:12;-4.40;99.90
4757;DHT22;2392;52.578;13.426;2024-01-11T03:08:39;-4.40;99.90
4757;DHT22;2392;52.578;13.426;2024-01-11T03:11:06;-4.40;99.90
4757;DHT22;2392;52.578;13.426;2024-01-11T03:13:33;-4.40;99.90
4757;DHT22;2392;52.578;13.426;2024-01-11T03:16:00;-4.40;99.90
4757;DHT22;2392;52.578;13.426;2024-01-11T03:18:27;-4.40;99.90
4757;DHT22;2392;52.578;13.426;2024-01-11T03:20:55;-4.40;99.90
4757;DHT22;2392;52.578;13.426;2024-01-11T03:23:22;-4.40;99.90
4757;DHT22;2392;52.578;13.426;2024-01-11T03:25:48;-4.40;99.90
4757;DHT22;2392;52.578;13.426;2024-01-11T03:28:15;-4.40;99.90
4757;DHT22;2392;52.578;13.426;2024-01-11T03:30:42;-4.40;99.90
4757;DHT22;2392;52.578;13.426;2024-01-11T03:33:10;-4.40;99.90
4757;DHT22;2392;52.578;13.426;2024-01-11T03:35:37;-4.40;99.90
4757;DHT22;2392;52.578;13.426;2024-01-11T03:38:04;-4.40;99.90
4757;DHT22;2392;52.578;13.426;2024-01-11T03:40:31;-4.30;99.90
4757;DHT22;2392;52.578;13.426;2024-01-11T03:42:57;-4.30;99.90
4757;DHT22;2392;52.578;13.426;2024-01-11T03:45:24;-4.30;99.90
4757;DHT22;2392;52.578;13.426;2024-01-11T03:47:51;-4.20;99.90
4757;DHT22;2392;52.578;13.426;2024-01-11T03:50:19;-4.20;99.90
4757;DHT22;2392;52.578;13.426;2024-01-11T03:52:46;-4.20;99.90
4757;DHT22;2392;52.578;13.426;2024-01-11T03:55:12;-4.20;99.90
4757;DHT22;2392;52.578;13.426;2024-01-11T03:57:39;-4.10;99.90
4757;DHT22;2392;52.578;13.426;2024-01-11T04:00:07;-4.10;99.90
4757;DHT22;2392;52.578;13.426;2024-01-11T04:02:34;-4.10;99.90
4757;DHT22;2392;52.578;13.426;2024-01-11T04:05:01;-4.10;99.90
4757;DHT22;2392;52.578;13.426;2024-01-11T04:07:30;-4.10;99.90
4757;DHT22;2392;52.578;13.426;2024-01-11T04:09:56;-4.00;99.90
4757;DHT22;2392;52.578;13.426;2024-01-11T04:12:23;-4.00;99.90
4757;DHT22;2392;52.578;13.426;2024-01-11T04:14:50;-4.00;99.90
4757;DHT22;2392;52.578;13.426;2024-01-11T04:17:17;-3.90;99.90
4757;DHT22;2392;52.578;13.426;2024-01-11T04:19:43;-3.90;99.90
4757;DHT22;2392;52.578;13.426;2024-01-11T04:22:13;-3.90;99.90
4757;DHT22;2392;52.578;13.426;2024-01-11T04:24:42;-3.90;99.90
4757;DHT22;2392;52.578;13.426;2024-01-11T04:27:09;-3.80;99.90
4757;DHT22;2392;52.578;13.426;2024-01-11T04:29:36;-3.90;99.90
4757;DHT22;2392;52.578;13.426;2024-01-11T04:32:03;-3.80;99.90
4757;DHT22;2392;52.578;13.426;2024-01-11T04:34:30;-3.80;99.90
4757;DHT22;2392;52.578;13.426;2024-01-11T04:36:56;-3.70;99.90
4757;DHT22;2392;52.578;13.426;2024-01-11T04:39:23;-3.70;99.90
4757;DHT22;2392;52.578;13.426;2024-01-11T04:41:51;-3.70;99.90
4757;DHT22;2392;52.578;13.426;2024-01-11T04:44:18;-3.70;99.90
4757;DHT22;2392;52.578;13.426;2024-01-11T04:46:45;-3.70;99.90
4757;DHT22;2392;52.578;13.426;2024-01-11T04:49:11;-3.60;99.90
4757;DHT22;2392;52.578;13.426;2024-01-11T04:51:38;-3.60;99.90
4757;DHT22;2392;52.578;13.426;2024-01-11T04:54:05;-3.60;99.90
4757;DHT22;2392;52.578;13.426;2024-01-11T04:56:32;-3.60;99.90
4757;DHT22;2392;52.578;13.426;2024-01-11T04:59:00;-3.60;99.90
4757;DHT22;2392;52.578;13.426;2024-01-11T05:01:27;-3.60;99.90
4757;DHT22;2392;52.578;13.426;2024-01-11T05:03:53;-3.50;99.90
4757;DHT22;2392;52.578;13.426;2024-01-11T05:06:21;-3.50;99.90
4757;DHT22;2392;52.578;13.426;2024-01-11T05:08:49;-3.50;99.90
4757;DHT22;2392;52.578;13.426;2024-01-11T05:11:17;-3.50;99.90
4757;DHT22;2392;52.578;13.426;2024-01-11T05:13:43;-3.50;99.90
4757;DHT22;2392;52.578;13.426;2024-01-11T05:16:19;-3.40;99.90
4757;DHT22;2392;52.578;13.426;2024-01-11T05:18:46;-3.40;99.90
4757;DHT22;2392;52.578;13.426;2024-01-11T05:21:12;-3.40;99.90
4757;DHT22;2392;52.578;13.426;2024-01-11T05:23:40;-3.30;99.90
4757;DHT22;2392;52.578;13.426;2024-01-11T05:26:07;-3.30;99.90
4757;DHT22;2392;52.578;13.426;2024-01-11T05:28:33;-3.30;99.90
4757;DHT22;2392;52.578;13.426;2024-01-11T05:31:00;-3.30;99.90
4757;DHT22;2392;52.578;13.426;2024-01-11T05:33:28;-3.30;99.90
4757;DHT22;2392;52.578;13.426;2024-01-11T05:35:55;-3.20;99.90
4757;DHT22;2392;52.578;13.426;2024-01-11T05:38:21;-3.20;99.90
4757;DHT22;2392;52.578;13.426;2024-01-11T05:40:48;-3.20;99.90
4757;DHT22;2392;52.578;13.426;2024-01-11T05:43:14;-3.20;99.90
4757;DHT22;2392;52.578;13.426;2024-01-11T05:45:41;-3.20;99.90
4757;DHT22;2392;52.578;13.426;2024-01-11T05:48:10;-3.10;99.90
4757;DHT22;2392;52.578;13.426;2024-01-11T05:50:38;-3.10;99.90
4757;DHT22;2392;52.578;13.426;2024-01-11T05:53:05;-3.20;99.90
4757;DHT22;2392;52.578;13.426;2024-01-11T05:55:31;-3.10;99.90
4757;DHT22;2392;52.578;13.426;2024-01-11T05:57:58;-3.10;99.90
4757;DHT22;2392;52.578;13.426;2024-01-11T06:00:25;-3.10;99.90
4757;DHT22;2392;52.578;13.426;2024-01-11T06:02:52;-3.00;99.90
4757;DHT22;2392;52.578;13.426;2024-01-11T06:05:18;-3.00;99.90
4757;DHT22;2392;52.578;13.426;2024-01-11T06:07:46;-3.00;99.90
4757;DHT22;2392;52.578;13.426;2024-01-11T06:10:14;-3.00;99.90
4757;DHT22;2392;52.578;13.426;2024-01-11T06:12:40;-2.90;99.90
4757;DHT22;2392;52.578;13.426;2024-01-11T06:15:08;-2.90;99.90
4757;DHT22;2392;52.578;13.426;2024-01-11T06:17:35;-2.90;99.90
4757;DHT22;2392;52.578;13.426;2024-01-11T06:20:01;-2.90;99.90
4757;DHT22;2392;52.578;13.426;2024-01-11T06:22:29;-2.90;99.90
4757;DHT22;2392;52.578;13.426;2024-01-11T06:24:57;-2.90;99.90
4757;DHT22;2392;52.578;13.426;2024-01-11T06:27:25;-2.80;99.90
4757;DHT22;2392;52.578;13.426;2024-01-11T06:29:51;-2.80;99.90
4757;DHT22;2392;52.578;13.426;2024-01-11T06:32:18;-2.80;99.90
4757;DHT22;2392;52.578;13.426;2024-01-11T06:34:45;-2.80;99.90
4757;DHT22;2392;52.578;13.426;2024-01-11T06:37:12;-2.80;99.90
4757;DHT22;2392;52.578;13.426;2024-01-11T06:39:39;-2.80;99.90
4757;DHT22;2392;52.578;13.426;2024-01-11T06:42:07;-2.70;99.90
4757;DHT22;2392;52.578;13.426;2024-01-11T06:44:34;-2.80;99.90
4757;DHT22;2392;52.578;13.426;2024-01-11T06:47:00;-2.70;99.90
4757;DHT22;2392;52.578;13.426;2024-01-11T06:49:29;-2.70;99.90
4757;DHT22;2392;52.578;13.426;2024-01-11T06:51:56;-2.70;99.90
4757;DHT22;2392;52.578;13.426;2024-01-11T06:54:22;-2.60;99.90
4757;DHT22;2392;52.578;13.426;2024-01-11T06:56:49;-2.70;99.90
4757;DHT22;2392;52.578;13.426;2024-01-11T06:59:17;-2.70;99.90
4757;DHT22;2392;52.578;13.426;2024-01-11T07:01:44;-2.60;99.90
4757;DHT22;2392;52.578;13.426;2024-01-11T07:04:11;-2.60;99.90
4757;DHT22;2392;52.578;13.426;2024-01-11T07:06:37;-2.60;99.90
4757;DHT22;2392;52.578;13.426;2024-01-11T07:09:04;-2.50;99.90
4757;DHT22;2392;52.578;13.426;2024-01-11T07:11:31;-2.50;99.90
4757;DHT22;2392;52.578;13.426;2024-01-11T07:13:58;-2.50;99.90
4757;DHT22;2392;52.578;13.426;2024-01-11T07:16:26;-2.50;99.90
4757;DHT22;2392;52.578;13.426;2024-01-11T07:18:53;-2.50;99.90
4757;DHT22;2392;52.578;13.426;2024-01-11T07:21:23;-2.50;99.90
4757;DHT22;2392;52.578;13.426;2024-01-11T07:23:55;-2.40;99.90
4757;DHT22;2392;52.578;13.426;2024-01-11T07:26:22;-2.50;99.90
4757;DHT22;2392;52.578;13.426;2024-01-11T07:28:49;-2.40;99.90
4757;DHT22;2392;52.578;13.426;2024-01-11T07:31:16;-2.40;99.90
4757;DHT22;2392;52.578;13.426;2024-01-11T07:33:44;-2.40;99.90
4757;DHT22;2392;52.578;13.426;2024-01-11T07:36:11;-2.30;99.90
4757;DHT22;2392;52.578;13.426;2024-01-11T07:38:37;-2.30;99.90
4757;DHT22;2392;52.578;13.426;2024-01-11T07:41:04;-2.20;99.90
4757;DHT22;2392;52.578;13.426;2024-01-11T07:43:31;-2.20;99.90
4757;DHT22;2392;52.578;13.426;2024-01-11T07:46:00;-2.10;99.90
4757;DHT22;2392;52.578;13.426;2024-01-11T07:48:29;-2.10;99.90
4757;DHT22;2392;52.578;13.426;2024-01-11T07:50:57;-2.10;99.90
4757;DHT22;2392;52.578;13.426;2024-01-11T07:53:24;-2.20;99.90
4757;DHT22;2392;52.578;13.426;2024-01-11T07:55:51;-2.10;99.90
4757;DHT22;2392;52.578;13.426;2024-01-11T07:58:18;-2.10;99.90
4757;DHT22;2392;52.578;13.426;2024-01-11T08:00:46;-2.10;99.90
4757;DHT22;2392;52.578;13.426;2024-01-11T08:03:13;-2.00;99.90
4757;DHT22;2392;52.578;13.426;2024-01-11T08:05:40;-2.00;99.90
4757;DHT22;2392;52.578;13.426;2024-01-11T08:08:08;-2.00;99.90
4757;DHT22;2392;52.578;13.426;2024-01-11T08:10:34;-2.00;99.90
4757;DHT22;2392;52.578;13.426;2024-01-11T08:13:01;-1.90;99.90
4757;DHT22;2392;52.578;13.426;2024-01-11T08:15:29;-1.90;99.90
4757;DHT22;2392;52.578;13.426;2024-01-11T08:17:55;-1.80;99.90
4757;DHT22;2392;52.578;13.426;2024-01-11T08:20:22;-1.80;99.90
4757;DHT22;2392;52.578;13.426;2024-01-11T08:22:49;-1.80;99.90
4757;DHT22;2392;52.578;13.426;2024-01-11T08:25:16;-1.80;99.90
4757;DHT22;2392;52.578;13.426;2024-01-11T08:27:43;-1.80;99.90
4757;DHT22;2392;52.578;13.426;2024-01-11T08:30:10;-1.80;99.90
4757;DHT22;2392;52.578;13.426;2024-01-11T08:32:38;-1.70;99.90
4757;DHT22;2392;52.578;13.426;2024-01-11T08:35:08;-1.80;99.90
4757;DHT22;2392;52.578;13.426;2024-01-11T08:37:37;-1.80;99.90
4757;DHT22;2392;52.578;13.426;2024-01-11T08:40:04;-1.70;99.90
4757;DHT22;2392;52.578;13.426;2024-01-11T08:42:32;-1.70;99.90
4757;DHT22;2392;52.578;13.426;2024-01-11T08:44:59;-1.60;99.90
4757;DHT22;2392;52.578;13.426;2024-01-11T08:47:32;-1.60;99.90
4757;DHT22;2392;52.578;13.426;2024-01-11T08:49:59;-1.60;99.90
4757;DHT22;2392;52.578;13.426;2024-01-11T08:52:25;-1.60;99.90
4757;DHT22;2392;52.578;13.426;2024-01-11T08:54:52;-1.60;99.90
4757;DHT22;2392;52.578;13.426;2024-01-11T08:57:19;-1.50;99.90
4757;DHT22;2392;52.578;13.426;2024-01-11T08:59:47;-1.50;99.90
4757;DHT22;2392;52.578;13.426;2024-01-11T09:02:14;-1.50;99.90
4757;DHT22;2392;52.578;13.426;2024-01-11T09:04:40;-1.50;99.90
4757;DHT22;2392;52.578;13.426;2024-01-11T09:07:07;-1.50;99.90
4757;DHT22;2392;52.578;13.426;2024-01-11T09:09:34;-1.40;99.90
4757;DHT22;2392;52.578;13.426;2024-01-11T09:12:00;-1.30;99.90
4757;DHT22;2392;52.578;13.426;2024-01-11T09:14:28;-1.30;99.90
4757;DHT22;2392;52.578;13.426;2024-01-11T09:16:56;-1.20;99.90
4757;DHT22;2392;52.578;13.426;2024-01-11T09:19:22;-1.10;99.90
4757;DHT22;2392;52.578;13.426;2024-01-11T09:21:49;-1.10;99.90
4757;DHT22;2392;52.578;13.426;2024-01-11T09:24:16;-1.10;99.90
4757;DHT22;2392;52.578;13.426;2024-01-11T09:26:43;-1.10;99.90
4757;DHT22;2392;52.578;13.426;2024-01-11T09:29:09;-1.10;99.90
4757;DHT22;2392;52.578;13.426;2024-01-11T09:31:36;-1.10;99.90
4757;DHT22;2392;52.578;13.426;2024-01-11T09:34:04;-1.10;99.90
4757;DHT22;2392;52.578;13.426;2024-01-11T09:36:30;-1.00;99.90
4757;DHT22;2392;52.578;13.426;2024-01-11T09:38:57;-1.00;99.90
4757;DHT22;2392;52.578;13.426;2024-01-11T09:41:24;-0.90;99.90
4757;DHT22;2392;52.578;13.426;2024-01-11T09:43:54;-0.90;99.90
4757;DHT22;2392;52.578;13.426;2024-01-11T09:46:22;-0.80;99.90
4757;DHT22;2392;52.578;13.426;2024-01-11T09:48:50;-0.90;99.90
4757;DHT22;2392;52.578;13.426;2024-01-11T09:51:19;-0.90;99.90
4757;DHT22;2392;52.578;13.426;2024-01-11T09:53:47;-0.80;99.90
4757;DHT22;2392;52.578;13.426;2024-01-11T09:56:16;-0.80;99.90
4757;DHT22;2392;52.578;13.426;2024-01-11T09:58:46;-0.80;99.90
4757;DHT22;2392;52.578;13.426;2024-01-11T10:01:14;-0.80;99.90
4757;DHT22;2392;52.578;13.426;2024-01-11T10:03:40;-0.70;99.90
4757;DHT22;2392;52.578;13.426;2024-01-11T10:06:08;-0.70;99.90
4757;DHT22;2392;52.578;13.426;2024-01-11T10:08:37;-0.70;99.90
4757;DHT22;2392;52.578;13.426;2024-01-11T10:11:04;-0.70;99.90
4757;DHT22;2392;52.578;13.426;2024-01-11T10:13:31;-0.60;99.90
4757;DHT22;2392;52.578;13.426;2024-01-11T10:16:08;-0.50;99.90
4757;DHT22;2392;52.578;13.426;2024-01-11T10:18:36;-0.50;99.90
4757;DHT22;2392;52.578;13.426;2024-01-11T10:21:03;-0.50;99.90
4757;DHT22;2392;52.578;13.426;2024-01-11T10:23:33;-0.50;99.90
4757;DHT22;2392;52.578;13.426;2024-01-11T10:26:01;-0.40;99.90
4757;DHT22;2392;52.578;13.426;2024-01-11T10:28:28;-0.40;99.90
4757;DHT22;2392;52.578;13.426;2024-01-11T10:30:55;-0.40;99.90
4757;DHT22;2392;52.578;13.426;2024-01-11T10:33:22;-0.40;99.90
4757;DHT22;2392;52.578;13.426;2024-01-11T10:35:49;-0.40;99.90
4757;DHT22;2392;52.578;13.426;2024-01-11T10:38:17;-0.40;99.90
4757;DHT22;2392;52.578;13.426;2024-01-11T10:40:44;-0.40;99.90
4757;DHT22;2392;52.578;13.426;2024-01-11T10:43:15;-0.40;99.90
4757;DHT22;2392;52.578;13.426;2024-01-11T10:45:44;-0.40;99.90
4757;DHT22;2392;52.578;13.426;2024-01-11T10:48:14;-0.30;99.90
4757;DHT22;2392;52.578;13.426;2024-01-11T10:50:43;-0.30;99.90
4757;DHT22;2392;52.578;13.426;2024-01-11T10:53:17;-0.30;99.90
4757;DHT22;2392;52.578;13.426;2024-01-11T10:55:48;-0.20;99.90
4757;DHT22;2392;52.578;13.426;2024-01-11T10:58:16;-0.20;99.90
4757;DHT22;2392;52.578;13.426;2024-01-11T11:00:45;-0.10;99.90
4757;DHT22;2392;52.578;13.426;2024-01-11T11:03:14;0.00;99.90
4757;DHT22;2392;52.578;13.426;2024-01-11T11:05:43;0.00;99.90
4757;DHT22;2392;52.578;13.426;2024-01-11T11:08:10;0.00;99.90
4757;DHT22;2392;52.578;13.426;2024-01-11T11:10:39;-0.10;99.90
4757;DHT22;2392;52.578;13.426;2024-01-11T11:13:08;-0.10;99.90
4757;DHT22;2392;52.578;13.426;2024-01-11T11:15:38;-0.20;99.90
4757;DHT22;2392;52.578;13.426;2024-01-11T11:18:05;-0.20;99.90
4757;DHT22;2392;52.578;13.426;2024-01-11T11:20:32;-0.20;99.90
4757;DHT22;2392;52.578;13.426;2024-01-11T11:23:06;-0.20;99.90
4757;DHT22;2392;52.578;13.426;2024-01-11T11:25:34;-0.20;99.90
4757;DHT22;2392;52.578;13.426;2024-01-11T11:28:01;-0.20;99.90
4757;DHT22;2392;52.578;13.426;2024-01-11T11:30:29;-0.20;99.90
4757;DHT22;2392;52.578;13.426;2024-01-11T11:32:57;-0.20;99.90
4757;DHT22;2392;52.578;13.426;2024-01-11T11:35:26;-0.20;99.90
4757;DHT22;2392;52.578;13.426;2024-01-11T11:37:55;-0.20;99.90
4757;DHT22;2392;52.578;13.426;2024-01-11T11:40:22;-0.20;99.90
4757;DHT22;2392;52.578;13.426;2024-01-11T11:42:57;-0.20;99.90
4757;DHT22;2392;52.578;13.426;2024-01-11T11:45:25;-0.20;99.90
4757;DHT22;2392;52.578;13.426;2024-01-11T11:47:52;-0.20;99.90
4757;DHT22;2392;52.578;13.426;2024-01-11T11:50:23;-0.10;99.90
4757;DHT22;2392;52.578;13.426;2024-01-11T11:52:54;-0.10;99.90
4757;DHT22;2392;52.578;13.426;2024-01-11T11:55:22;-0.10;99.90
4757;DHT22;2392;52.578;13.426;2024-01-11T11:57:50;-0.10;99.90
4757;DHT22;2392;52.578;13.426;2024-01-11T12:00:17;0.00;99.90
4757;DHT22;2392;52.578;13.426;2024-01-11T12:02:44;0.00;99.90
4757;DHT22;2392;52.578;13.426;2024-01-11T12:05:13;0.00;99.90
4757;DHT22;2392;52.578;13.426;2024-01-11T12:07:41;0.10;99.90
4757;DHT22;2392;52.578;13.426;2024-01-11T12:10:08;0.10;99.90
4757;DHT22;2392;52.578;13.426;2024-01-11T12:12:34;0.20;99.90
4757;DHT22;2392;52.578;13.426;2024-01-11T12:15:03;0.20;99.90
4757;DHT22;2392;52.578;13.426;2024-01-11T12:17:29;0.20;99.90
4757;DHT22;2392;52.578;13.426;2024-01-11T12:19:56;0.20;99.90
4757;DHT22;2392;52.578;13.426;2024-01-11T12:22:23;0.30;99.90
4757;DHT22;2392;52.578;13.426;2024-01-11T12:24:51;0.30;99.90
4757;DHT22;2392;52.578;13.426;2024-01-11T12:27:18;0.30;99.90
4757;DHT22;2392;52.578;13.426;2024-01-11T12:29:45;0.30;99.90
4757;DHT22;2392;52.578;13.426;2024-01-11T12:32:14;0.30;99.90
4757;DHT22;2392;52.578;13.426;2024-01-11T12:34:43;0.30;99.90
4757;DHT22;2392;52.578;13.426;2024-01-11T12:37:09;0.30;99.90
4757;DHT22;2392;52.578;13.426;2024-01-11T12:39:37;0.30;99.90
4757;DHT22;2392;52.578;13.426;2024-01-11T12:42:06;0.30;99.90
4757;DHT22;2392;52.578;13.426;2024-01-11T12:44:33;0.40;99.90
4757;DHT22;2392;52.578;13.426;2024-01-11T12:47:03;0.40;99.90
4757;DHT22;2392;52.578;13.426;2024-01-11T12:49:30;0.40;99.90
4757;DHT22;2392;52.578;13.426;2024-01-11T12:51:57;0.40;99.90
4757;DHT22;2392;52.578;13.426;2024-01-11T12:54:24;0.50;99.90
4757;DHT22;2392;52.578;13.426;2024-01-11T12:56:50;0.50;99.90
4757;DHT22;2392;52.578;13.426;2024-01-11T12:59:19;0.50;99.90
4757;DHT22;2392;52.578;13.426;2024-01-11T13:01:45;0.50;99.90
4757;DHT22;2392;52.578;13.426;2024-01-11T13:04:12;0.60;99.90
4757;DHT22;2392;52.578;13.426;2024-01-11T13:06:39;0.60;99.90
4757;DHT22;2392;52.578;13.426;2024-01-11T13:09:06;0.60;99.90
4757;DHT22;2392;52.578;13.426;2024-01-11T13:11:33;0.70;99.90
4757;DHT22;2392;52.578;13.426;2024-01-11T13:14:00;0.60;99.90
4757;DHT22;2392;52.578;13.426;2024-01-11T13:16:33;0.70;99.90
4757;DHT22;2392;52.578;13.426;2024-01-11T13:18:59;0.60;99.90
4757;DHT22;2392;52.578;13.426;2024-01-11T13:21:26;0.60;99.90
4757;DHT22;2392;52.578;13.426;2024-01-11T13:23:53;0.60;99.90
4757;DHT22;2392;52.578;13.426;2024-01-11T13:26:20;0.60;99.90
4757;DHT22;2392;52.578;13.426;2024-01-11T13:28:46;0.60;99.90
4757;DHT22;2392;52.578;13.426;2024-01-11T13:31:13;0.60;99.90
4757;DHT22;2392;52.578;13.426;2024-01-11T13:33:41;0.60;99.90
4757;DHT22;2392;52.578;13.426;2024-01-11T13:36:08;0.60;99.90
4757;DHT22;2392;52.578;13.426;2024-01-11T13:38:35;0.50;99.90
4757;DHT22;2392;52.578;13.426;2024-01-11T13:41:02;0.50;99.90
4757;DHT22;2392;52.578;13.426;2024-01-11T13:43:30;0.50;99.90
4757;DHT22;2392;52.578;13.426;2024-01-11T13:45:57;0.50;99.90
4757;DHT22;2392;52.578;13.426;2024-01-11T13:48:24;0.50;99.90
4757;DHT22;2392;52.578;13.426;2024-01-11T13:50:52;0.40;99.90
4757;DHT22;2392;52.578;13.426;2024-01-11T13:53:19;0.40;99.90
4757;DHT22;2392;52.578;13.426;2024-01-11T13:55:45;0.40;99.90
4757;DHT22;2392;52.578;13.426;2024-01-11T13:58:12;0.40;99.90
4757;DHT22;2392;52.578;13.426;2024-01-11T14:00:41;0.50;99.90
4757;DHT22;2392;52.578;13.426;2024-01-11T14:03:07;0.50;99.90
4757;DHT22;2392;52.578;13.426;2024-01-11T14:05:36;0.50;99.90
4757;DHT22;2392;52.578;13.426;2024-01-11T14:08:05;0.40;99.90
4757;DHT22;2392;52.578;13.426;2024-01-11T14:10:33;0.40;99.90
4757;DHT22;2392;52.578;13.426;2024-01-11T14:13:00;0.40;99.90
4757;DHT22;2392;52.578;13.426;2024-01-11T14:15:27;0.40;99.90
4757;DHT22;2392;52.578;13.426;2024-01-11T14:17:55;0.40;99.90
4757;DHT22;2392;52.578;13.426;2024-01-11T14:20:22;0.40;99.90
4757;DHT22;2392;52.578;13.426;2024-01-11T14:22:50;0.30;99.90
4757;DHT22;2392;52.578;13.426;2024-01-11T14:25:20;0.30;99.90
4757;DHT22;2392;52.578;13.426;2024-01-11T14:27:47;0.30;99.90
4757;DHT22;2392;52.578;13.426;2024-01-11T14:30:14;0.30;99.90
4757;DHT22;2392;52.578;13.426;2024-01-11T14:32:41;0.30;99.90
4757;DHT22;2392;52.578;13.426;2024-01-11T14:35:09;0.30;99.90
4757;DHT22;2392;52.578;13.426;2024-01-11T14:37:37;0.30;99.90
4757;DHT22;2392;52.578;13.426;2024-01-11T14:40:05;0.30;99.90
4757;DHT22;2392;52.578;13.426;2024-01-11T14:42:34;0.30;99.90
4757;DHT22;2392;52.578;13.426;2024-01-11T14:45:01;0.30;99.90
4757;DHT22;2392;52.578;13.426;2024-01-11T14:47:29;0.30;99.90
4757;DHT22;2392;52.578;13.426;2024-01-11T14:49:57;0.30;99.90
4757;DHT22;2392;52.578;13.426;2024-01-11T14:52:24;0.30;99.90
4757;DHT22;2392;52.578;13.426;2024-01-11T14:54:51;0.30;99.90
4757;DHT22;2392;52.578;13.426;2024-01-11T14:57:18;0.20;99.90
4757;DHT22;2392;52.578;13.426;2024-01-11T14:59:47;0.30;99.90
4757;DHT22;2392;52.578;13.426;2024-01-11T15:02:14;0.30;99.90
4757;DHT22;2392;52.578;13.426;2024-01-11T15:04:41;0.20;99.90
4757;DHT22;2392;52.578;13.426;2024-01-11T15:07:08;0.20;99.90
4757;DHT22;2392;52.578;13.426;2024-01-11T15:09:35;0.20;99.90
4757;DHT22;2392;52.578;13.426;2024-01-11T15:12:02;0.20;99.90
4757;DHT22;2392;52.578;13.426;2024-01-11T15:14:29;0.20;99.90
4757;DHT22;2392;52.578;13.426;2024-01-11T15:16:57;0.20;99.90
4757;DHT22;2392;52.578;13.426;2024-01-11T15:19:24;0.20;99.90
4757;DHT22;2392;52.578;13.426;2024-01-11T15:21:51;0.20;99.90
4757;DHT22;2392;52.578;13.426;2024-01-11T15:24:18;0.20;99.90
4757;DHT22;2392;52.578;13.426;2024-01-11T15:26:45;0.20;99.90
4757;DHT22;2392;52.578;13.426;2024-01-11T15:29:11;0.20;99.90
4757;DHT22;2392;52.578;13.426;2024-01-11T15:31:39;0.30;99.90
4757;DHT22;2392;52.578;13.426;2024-01-11T15:34:08;0.30;99.90
4757;DHT22;2392;52.578;13.426;2024-01-11T15:36:35;0.30;99.90
4757;DHT22;2392;52.578;13.426;2024-01-11T15:39:02;0.30;99.90
4757;DHT22;2392;52.578;13.426;2024-01-11T15:41:29;0.30;99.90
4757;DHT22;2392;52.578;13.426;2024-01-11T15:43:56;0.40;99.90
4757;DHT22;2392;52.578;13.426;2024-01-11T15:46:23;0.40;99.90
4757;DHT22;2392;52.578;13.426;2024-01-11T15:48:50;0.40;99.90
4757;DHT22;2392;52.578;13.426;2024-01-11T15:51:18;0.40;99.90